createdAt,value
2023-05-19T00:02:05.577Z,3.90
2023-05-19T00:04:33.697Z,4.40
2023-05-19T00:07:01.904Z,3.72
2023-05-19T00:09:28.961Z,3.50
2023-05-19T00:14:23.504Z,3.63
2023-05-19T00:16:50.220Z,4.07
2023-05-19T00:19:17.018Z,3.90
2023-05-19T00:21:43.665Z,4.10
2023-05-19T00:24:10.178Z,4.10
2023-05-19T00:26:37.202Z,4.40
2023-05-19T00:31:31.837Z,4.13
2023-05-19T00:33:58.362Z,3.92
2023-05-19T00:36:25.122Z,3.60
2023-05-19T00:38:51.962Z,4.40
2023-05-19T00:41:18.471Z,4.13
2023-05-19T00:43:45.160Z,3.78
2023-05-19T00:46:11.697Z,3.80
2023-05-19T00:48:38.188Z,4.68
2023-05-19T00:51:06.590Z,3.72
2023-05-19T00:53:34.641Z,5.00
2023-05-19T00:56:02.957Z,3.80
2023-05-19T00:58:30.759Z,4.00
2023-05-19T01:01:03.535Z,4.03
2023-05-19T01:03:32.159Z,3.90
2023-05-19T01:06:01.765Z,3.80
2023-05-19T01:08:29.355Z,3.60
2023-05-19T01:10:55.996Z,3.70
2023-05-19T01:13:22.924Z,3.67
2023-05-19T01:16:07.146Z,3.47
2023-05-19T01:18:47.348Z,3.35
2023-05-19T01:21:26.152Z,3.30
2023-05-19T01:24:07.147Z,3.25
2023-05-19T01:26:51.342Z,3.28
2023-05-19T01:29:41.076Z,3.55
2023-05-19T01:32:09.331Z,3.05
2023-05-19T01:34:42.116Z,3.10
2023-05-19T01:37:09.958Z,4.03
2023-05-19T01:39:37.267Z,3.53
2023-05-19T01:42:04.717Z,3.00
2023-05-19T01:44:32.889Z,3.47
2023-05-19T01:47:00.176Z,3.00
2023-05-19T01:49:26.665Z,2.97
2023-05-19T01:51:53.339Z,2.95
2023-05-19T01:54:19.869Z,3.15
2023-05-19T01:56:57.543Z,3.33
2023-05-19T01:59:42.437Z,2.97
2023-05-19T02:02:59.097Z,3.10
2023-05-19T02:05:37.411Z,3.38
2023-05-19T02:08:12.863Z,3.03
2023-05-19T02:10:43.545Z,2.83
2023-05-19T02:13:12.300Z,3.40
2023-05-19T02:15:44.795Z,3.13
2023-05-19T02:18:12.356Z,2.70
2023-05-19T02:20:40.073Z,2.80
2023-05-19T02:23:06.678Z,2.63
2023-05-19T02:25:33.377Z,2.88
2023-05-19T02:28:00.289Z,2.88
2023-05-19T02:30:26.830Z,2.85
2023-05-19T02:32:54.326Z,2.70
2023-05-19T02:35:21.476Z,2.28
2023-05-19T02:40:14.414Z,2.35
2023-05-19T02:42:40.894Z,2.67
2023-05-19T02:45:07.918Z,2.85
2023-05-19T02:50:04.133Z,3.40
2023-05-19T02:54:56.943Z,3.30
2023-05-19T02:57:24.147Z,2.97
2023-05-19T02:59:51.080Z,3.05
2023-05-19T03:02:17.766Z,3.17
2023-05-19T03:04:44.273Z,3.80
2023-05-19T03:07:10.818Z,3.80
2023-05-19T03:09:37.870Z,3.65
2023-05-19T03:12:04.629Z,3.78
2023-05-19T03:14:32.727Z,2.88
2023-05-19T03:17:00.242Z,3.40
2023-05-19T03:19:27.621Z,2.63
2023-05-19T03:21:54.249Z,3.33
2023-05-19T03:24:20.699Z,3.17
2023-05-19T03:26:47.791Z,2.28
2023-05-19T03:31:40.675Z,2.97
2023-05-19T03:34:07.093Z,2.55
2023-05-19T03:36:39.731Z,3.28
2023-05-19T03:39:06.923Z,3.58
2023-05-19T03:41:33.368Z,2.95
2023-05-19T03:43:59.818Z,2.90
2023-05-19T03:46:26.268Z,2.80
2023-05-19T03:48:52.835Z,2.45
2023-05-19T03:51:19.256Z,2.80
2023-05-19T03:53:45.761Z,2.80
2023-05-19T03:56:13.880Z,2.85
2023-05-19T03:58:44.874Z,3.03
2023-05-19T04:01:11.555Z,3.22
2023-05-19T04:03:38.070Z,3.10
2023-05-19T04:06:04.646Z,2.92
2023-05-19T04:08:31.293Z,3.20
2023-05-19T04:10:57.770Z,2.92
2023-05-19T04:13:24.257Z,2.70
2023-05-19T04:15:50.901Z,3.00
2023-05-19T04:18:17.406Z,3.15
2023-05-19T04:20:43.861Z,3.20
2023-05-19T04:23:10.618Z,3.17
2023-05-19T04:25:37.406Z,2.80
2023-05-19T04:28:03.862Z,3.03
2023-05-19T04:30:31.188Z,2.78
2023-05-19T04:32:58.238Z,3.40
2023-05-19T04:35:24.946Z,2.83
2023-05-19T04:37:54.296Z,3.50
2023-05-19T04:40:23.631Z,3.10
2023-05-19T04:42:52.407Z,3.10
2023-05-19T04:45:19.030Z,2.70
2023-05-19T04:47:48.099Z,3.10
2023-05-19T04:50:16.399Z,3.00
2023-05-19T04:52:45.489Z,3.22
2023-05-19T04:55:13.180Z,3.00
2023-05-19T04:57:40.256Z,3.20
2023-05-19T05:00:09.226Z,3.05
2023-05-19T05:02:36.269Z,3.10
2023-05-19T05:09:58.789Z,3.47
2023-05-19T05:12:25.596Z,2.95
2023-05-19T05:14:52.325Z,3.50
2023-05-19T05:17:19.247Z,3.10
2023-05-19T05:19:46.001Z,3.15
2023-05-19T05:22:12.767Z,3.22
2023-05-19T05:24:39.556Z,3.92
2023-05-19T05:27:08.121Z,3.45
2023-05-19T05:29:34.654Z,3.90
2023-05-19T05:32:01.292Z,3.15
2023-05-19T05:34:27.848Z,3.65
2023-05-19T05:36:54.771Z,3.15
2023-05-19T05:39:21.223Z,3.10
2023-05-19T05:41:47.689Z,3.42
2023-05-19T05:44:14.164Z,3.25
2023-05-19T05:46:41.132Z,3.30
2023-05-19T05:51:34.592Z,3.33
2023-05-19T05:56:28.706Z,3.45
2023-05-19T05:58:55.126Z,3.42
2023-05-19T06:01:21.945Z,3.15
2023-05-19T06:03:48.407Z,3.40
2023-05-19T06:06:14.869Z,2.90
2023-05-19T06:08:41.334Z,2.83
2023-05-19T06:11:10.588Z,3.25
2023-05-19T06:13:38.206Z,3.30
2023-05-19T06:16:05.768Z,3.25
2023-05-19T06:18:32.509Z,2.97
2023-05-19T06:20:59.132Z,3.08
2023-05-19T06:23:29.156Z,3.00
2023-05-19T06:25:56.265Z,3.55
2023-05-19T06:28:22.690Z,3.40
2023-05-19T06:30:49.450Z,3.67
2023-05-19T06:33:16.083Z,2.85
2023-05-19T06:35:42.552Z,3.80
2023-05-19T06:38:09.049Z,3.22
2023-05-19T06:40:36.961Z,3.60
2023-05-19T06:43:05.088Z,3.60
2023-05-19T06:45:31.600Z,3.47
2023-05-19T06:47:58.690Z,3.05
2023-05-19T06:50:25.560Z,2.92
2023-05-19T06:52:52.249Z,3.42
2023-05-19T06:55:19.099Z,3.47
2023-05-19T06:57:45.698Z,3.05
2023-05-19T07:00:15.154Z,3.28
2023-05-19T07:02:43.624Z,4.03
2023-05-19T07:05:12.557Z,3.60
2023-05-19T07:07:39.050Z,3.13
2023-05-19T07:10:06.117Z,2.70
2023-05-19T07:12:32.590Z,3.72
2023-05-19T07:14:59.046Z,3.03
2023-05-19T07:17:25.512Z,3.05
2023-05-19T07:19:51.969Z,2.95
2023-05-19T07:22:18.528Z,2.97
2023-05-19T07:24:45.779Z,2.70
2023-05-19T07:27:12.317Z,3.17
2023-05-19T07:29:38.732Z,3.13
2023-05-19T07:32:05.853Z,3.50
2023-05-19T07:34:32.390Z,2.67
2023-05-19T07:36:58.883Z,2.90
2023-05-19T07:39:28.083Z,2.80
2023-05-19T07:41:55.742Z,3.00
2023-05-19T07:44:22.220Z,3.08
2023-05-19T07:46:50.218Z,3.10
2023-05-19T07:49:16.712Z,2.63
2023-05-19T07:51:43.285Z,3.05
2023-05-19T07:54:09.758Z,2.90
2023-05-19T07:56:36.250Z,3.20
2023-05-19T07:59:03.883Z,2.72
2023-05-19T08:01:31.156Z,2.72
2023-05-19T08:03:57.863Z,2.85
2023-05-19T08:08:52.355Z,2.13
2023-05-19T08:11:18.772Z,2.58
2023-05-19T08:13:48.713Z,2.15
2023-05-19T08:16:18.640Z,2.63
2023-05-19T08:18:45.268Z,2.38
2023-05-19T08:21:11.803Z,2.60
2023-05-19T08:23:39.114Z,2.67
2023-05-19T08:26:05.767Z,2.65
2023-05-19T08:28:32.253Z,3.17
2023-05-19T08:30:58.817Z,2.50
2023-05-19T08:33:25.637Z,2.70
2023-05-19T08:38:18.524Z,3.05
2023-05-19T08:40:47.302Z,2.72
2023-05-19T08:43:13.987Z,2.60
2023-05-19T08:45:48.339Z,2.75
2023-05-19T08:48:17.523Z,2.88
2023-05-19T08:50:51.780Z,3.00
2023-05-19T08:53:33.921Z,2.58
2023-05-19T08:56:21.824Z,3.03
2023-05-19T08:58:50.409Z,2.78
2023-05-19T09:01:19.187Z,2.72
2023-05-19T09:03:49.514Z,3.10
2023-05-19T09:06:16.346Z,2.80
2023-05-19T09:08:43.764Z,3.15
2023-05-19T09:11:11.058Z,2.30
2023-05-19T09:13:37.814Z,2.75
2023-05-19T09:18:31.467Z,3.30
2023-05-19T09:21:00.398Z,3.22
2023-05-19T09:23:29.582Z,3.05
2023-05-19T09:25:57.127Z,2.55
2023-05-19T09:28:28.082Z,2.60
2023-05-19T09:31:10.005Z,2.65
2023-05-19T09:33:44.368Z,2.47
2023-05-19T09:36:12.667Z,3.15
2023-05-19T09:38:39.901Z,2.28
2023-05-19T09:41:07.877Z,2.00
2023-05-19T09:43:35.027Z,2.08
2023-05-19T09:46:06.645Z,2.60
2023-05-19T09:48:34.962Z,1.98
2023-05-19T09:51:02.385Z,2.40
2023-05-19T09:53:32.616Z,2.70
2023-05-19T09:56:02.343Z,2.42
2023-05-19T09:58:36.767Z,3.13
2023-05-19T10:01:04.589Z,2.70
2023-05-19T10:03:33.085Z,2.67
2023-05-19T10:49:11.032Z,2.40
2023-05-19T10:51:37.523Z,2.55
2023-05-19T10:54:10.460Z,2.75
2023-05-19T10:56:42.364Z,2.15
2023-05-19T10:59:32.791Z,2.38
2023-05-19T11:02:04.831Z,2.00
2023-05-19T11:04:51.101Z,2.08
2023-05-19T11:07:22.535Z,2.20
2023-05-19T11:09:53.210Z,2.30
2023-05-19T11:12:25.065Z,2.40
2023-05-19T11:14:55.426Z,2.35
2023-05-19T11:17:24.714Z,2.30
2023-05-19T11:19:54.627Z,2.65
2023-05-19T11:22:27.331Z,2.20
2023-05-19T11:24:57.597Z,2.17
2023-05-19T11:27:33.909Z,2.05
2023-05-19T11:30:07.532Z,2.08
2023-05-19T11:32:35.950Z,1.85
2023-05-19T11:35:02.796Z,1.90
2023-05-19T11:37:32.904Z,2.38
2023-05-19T11:40:08.152Z,1.88
2023-05-19T11:42:36.887Z,1.90
2023-05-19T11:45:04.691Z,2.20
2023-05-19T11:47:42.588Z,2.10
2023-05-19T11:50:18.879Z,1.80
2023-05-19T11:52:47.407Z,2.17
2023-05-19T11:55:18.066Z,2.03
2023-05-19T11:58:05.826Z,2.33
2023-05-19T12:00:38.112Z,2.30
2023-05-19T12:03:05.142Z,2.25
2023-05-19T12:05:34.989Z,2.03
2023-05-19T12:08:04.221Z,2.10
2023-05-19T12:12:59.281Z,2.33
2023-05-19T12:15:26.281Z,2.63
2023-05-19T12:18:01.007Z,2.35
2023-05-19T12:20:29.048Z,2.80
2023-05-19T12:22:56.466Z,3.15
2023-05-19T12:25:23.577Z,2.72
2023-05-19T12:27:50.465Z,3.17
2023-05-19T12:30:17.009Z,2.97
2023-05-19T12:32:51.904Z,2.63
2023-05-19T12:35:22.088Z,2.67
2023-05-19T12:37:49.206Z,2.13
2023-05-19T12:40:16.953Z,2.42
2023-05-19T12:42:52.243Z,2.67
2023-05-19T12:45:21.401Z,3.53
2023-05-19T12:47:48.919Z,3.53
2023-05-19T12:50:16.261Z,3.35
2023-05-19T12:52:48.990Z,3.80
2023-05-19T12:55:16.707Z,3.28
2023-05-19T12:57:51.878Z,3.78
2023-05-19T13:00:21.110Z,3.50
2023-05-19T13:03:05.656Z,3.50
2023-05-19T13:05:40.668Z,4.40
2023-05-19T13:08:11.936Z,3.55
2023-05-19T13:10:40.049Z,3.75
2023-05-19T13:13:08.275Z,4.45
2023-05-19T13:15:40.637Z,4.57
2023-05-19T13:18:09.391Z,4.15
2023-05-19T13:20:37.971Z,4.38
2023-05-19T13:23:05.762Z,4.32
2023-05-19T13:25:35.749Z,3.50
2023-05-19T13:28:05.598Z,3.53
2023-05-19T13:30:36.952Z,3.22
2023-05-19T13:33:03.819Z,3.00
2023-05-19T13:38:08.036Z,2.55
2023-05-19T13:40:34.996Z,2.50
2023-05-19T13:43:02.422Z,2.40
2023-05-19T13:45:29.087Z,2.35
2023-05-19T13:50:22.434Z,2.58
2023-05-19T13:52:49.004Z,2.63
2023-05-19T13:55:15.492Z,3.00
2023-05-19T13:57:44.020Z,2.05
2023-05-19T14:00:11.117Z,2.38
2023-05-19T14:02:38.247Z,1.95
2023-05-19T14:05:05.942Z,2.03
2023-05-19T14:07:34.698Z,2.40
2023-05-19T14:10:01.974Z,2.15
2023-05-19T14:12:38.098Z,3.00
2023-05-19T14:15:14.060Z,2.67
2023-05-19T14:17:40.599Z,2.83
2023-05-19T14:20:07.725Z,2.83
2023-05-19T14:22:34.140Z,3.72
2023-05-19T14:25:00.874Z,3.35
2023-05-19T14:32:20.792Z,3.08
2023-05-19T14:34:47.339Z,2.78
2023-05-19T14:37:13.763Z,3.95
2023-05-19T14:39:40.313Z,4.10
2023-05-19T14:42:06.764Z,3.05
2023-05-19T14:44:33.294Z,3.85
2023-05-19T14:47:01.310Z,3.45
2023-05-19T14:49:27.823Z,3.30
2023-05-19T14:51:54.361Z,3.45
2023-05-19T14:54:20.863Z,3.47
2023-05-19T14:56:47.509Z,3.53
2023-05-19T14:59:14.018Z,3.08
2023-05-19T15:01:40.504Z,3.60
2023-05-19T15:04:07.040Z,3.50
2023-05-19T15:06:33.525Z,3.72
2023-05-19T15:09:00.002Z,3.17
2023-05-19T15:11:26.498Z,3.65
2023-05-19T15:13:53.183Z,3.65
2023-05-19T15:16:19.709Z,3.60
2023-05-19T15:18:46.980Z,3.40
2023-05-19T15:21:13.510Z,3.22
2023-05-19T15:23:39.969Z,3.40
2023-05-19T15:26:09.233Z,3.97
2023-05-19T15:28:35.677Z,3.90
2023-05-19T15:31:02.202Z,3.33
2023-05-19T15:33:28.634Z,3.30
2023-05-19T15:35:55.061Z,3.60
2023-05-19T15:38:21.644Z,3.30
2023-05-19T15:40:48.194Z,3.10
2023-05-19T15:43:14.967Z,3.40
2023-05-19T15:48:08.536Z,3.60
2023-05-19T15:50:36.060Z,3.63
2023-05-19T15:53:02.755Z,3.53
2023-05-19T15:55:29.264Z,2.90
2023-05-19T15:57:55.873Z,3.47
2023-05-19T16:00:22.291Z,2.95
2023-05-19T16:02:48.814Z,3.00
2023-05-19T16:05:15.386Z,3.00
2023-05-19T16:07:42.135Z,3.63
2023-05-19T16:12:36.579Z,3.30
2023-05-19T16:15:03.500Z,4.05
2023-05-19T16:19:56.639Z,3.55
2023-05-19T16:22:24.816Z,3.92
2023-05-19T16:24:52.231Z,3.72
2023-05-19T16:27:19.183Z,4.30
2023-05-19T16:29:45.830Z,4.20
2023-05-19T16:32:12.874Z,4.57
2023-05-19T16:34:39.828Z,4.10
2023-05-19T16:41:59.069Z,4.53
2023-05-19T16:44:25.721Z,3.70
2023-05-19T16:46:52.222Z,4.10
2023-05-19T16:49:18.803Z,3.83
2023-05-19T16:51:46.839Z,4.25
2023-05-19T16:54:14.684Z,4.90
2023-05-19T16:56:41.185Z,5.15
2023-05-19T16:59:15.630Z,4.30
2023-05-19T17:01:42.171Z,4.93
2023-05-19T17:04:09.489Z,4.72
2023-05-19T17:06:36.106Z,5.57
2023-05-19T17:09:02.769Z,5.10
2023-05-19T17:11:29.275Z,4.82
2023-05-19T17:13:55.755Z,4.95
2023-05-19T17:16:23.452Z,4.57
2023-05-19T17:18:50.030Z,4.90
2023-05-19T17:21:17.498Z,5.22
2023-05-19T17:23:44.162Z,4.88
2023-05-19T17:26:10.717Z,4.60
2023-05-19T17:28:37.173Z,5.50
2023-05-19T17:31:10.069Z,5.28
2023-05-19T17:33:36.827Z,5.50
2023-05-19T17:38:32.272Z,4.95
2023-05-19T17:40:59.552Z,4.78
2023-05-19T17:43:26.602Z,5.60
2023-05-19T17:53:16.188Z,4.40
2023-05-19T17:55:51.045Z,5.18
2023-05-19T17:58:18.373Z,4.88
2023-05-19T18:00:45.536Z,4.30
2023-05-19T18:03:12.492Z,5.20
2023-05-19T18:08:09.138Z,5.20
2023-05-19T18:10:37.751Z,5.65
2023-05-19T18:13:05.550Z,5.63
2023-05-19T18:15:32.086Z,5.40
2023-05-19T18:17:58.641Z,5.63
2023-05-19T18:20:25.297Z,5.50
2023-05-19T18:22:51.757Z,5.57
2023-05-19T18:25:21.141Z,5.70
2023-05-19T18:27:47.622Z,6.38
2023-05-19T18:30:14.078Z,5.40
2023-05-19T18:32:40.698Z,5.55
2023-05-19T18:35:08.751Z,6.15
2023-05-19T18:37:35.707Z,6.35
2023-05-19T18:42:28.593Z,6.20
2023-05-19T18:44:55.127Z,6.88
2023-05-19T18:47:23.066Z,7.13
2023-05-19T18:49:49.991Z,7.60
2023-05-19T18:52:16.532Z,7.30
2023-05-19T18:54:44.062Z,6.95
2023-05-19T18:57:10.541Z,7.25
2023-05-19T18:59:36.983Z,8.23
2023-05-19T19:02:03.581Z,7.30
2023-05-19T19:04:30.424Z,7.57
2023-05-19T19:06:56.943Z,9.68
2023-05-19T19:09:23.387Z,8.57
2023-05-19T19:11:49.800Z,9.05
2023-05-19T19:14:16.274Z,9.40
2023-05-19T19:16:42.804Z,10.18
2023-05-19T19:19:09.924Z,9.55
2023-05-19T19:21:36.492Z,9.18
2023-05-19T19:24:03.101Z,10.00
2023-05-19T19:26:29.619Z,10.20
2023-05-19T19:28:56.723Z,10.23
2023-05-19T19:31:25.740Z,9.73
2023-05-19T19:33:52.204Z,11.02
2023-05-19T19:36:18.776Z,10.55
2023-05-19T19:38:45.261Z,9.82
2023-05-19T19:41:11.944Z,10.73
2023-05-19T19:43:38.427Z,10.95
2023-05-19T19:46:07.050Z,11.18
2023-05-19T19:48:33.569Z,11.00
2023-05-19T19:51:00.015Z,11.00
2023-05-19T19:53:26.508Z,11.10
2023-05-19T19:55:59.709Z,11.73
2023-05-19T19:58:26.805Z,11.75
2023-05-19T20:01:00.591Z,11.80
2023-05-19T20:03:27.224Z,12.52
2023-05-19T20:05:55.652Z,12.52
2023-05-19T20:08:23.054Z,12.27
2023-05-19T20:10:49.917Z,12.45
2023-05-19T20:13:17.210Z,13.27
2023-05-19T20:15:44.612Z,13.48
2023-05-19T20:18:11.799Z,12.73
2023-05-19T20:20:42.474Z,12.68
2023-05-19T20:23:09.097Z,14.02
2023-05-19T20:25:54.398Z,14.23
2023-05-19T20:28:28.111Z,12.93
2023-05-19T20:30:54.563Z,14.70
2023-05-19T20:33:21.231Z,14.95
2023-05-19T20:35:47.664Z,12.98
2023-05-19T20:38:14.216Z,12.95
2023-05-19T20:40:40.788Z,13.02
2023-05-19T20:43:11.355Z,14.25
2023-05-19T20:45:38.076Z,13.07
2023-05-19T20:48:05.211Z,14.80
2023-05-19T20:50:31.948Z,13.18
2023-05-19T20:55:25.061Z,13.20
2023-05-19T20:57:51.519Z,12.90
2023-05-19T21:00:18.280Z,12.63
2023-05-19T21:02:44.871Z,12.82
2023-05-19T21:05:11.644Z,14.23
2023-05-19T21:07:38.245Z,12.95
2023-05-19T21:10:05.154Z,14.23
2023-05-19T21:15:03.695Z,13.63
2023-05-19T21:17:30.310Z,13.07
2023-05-19T21:20:03.978Z,13.50
2023-05-19T21:22:30.604Z,14.40
2023-05-19T21:24:57.489Z,13.52
2023-05-19T21:30:01.225Z,12.52
2023-05-19T21:32:30.094Z,12.70
2023-05-19T21:35:00.735Z,13.95
2023-05-19T21:37:36.971Z,13.05
2023-05-19T21:40:03.575Z,13.23
2023-05-19T21:42:30.152Z,13.32
2023-05-19T21:44:56.860Z,13.48
2023-05-19T21:47:23.293Z,13.25
2023-05-19T21:49:49.758Z,13.65
2023-05-19T21:52:16.190Z,12.30
2023-05-19T21:54:42.950Z,13.35
2023-05-19T21:57:11.119Z,12.35
2023-05-19T21:59:37.623Z,13.93
2023-05-19T22:02:04.759Z,12.18
2023-05-19T22:04:31.538Z,12.70
2023-05-19T22:06:58.738Z,13.75
2023-05-19T22:09:25.692Z,13.30
2023-05-19T22:14:18.729Z,12.90
2023-05-19T22:16:47.466Z,13.60
2023-05-19T22:19:14.844Z,13.57
2023-05-19T22:21:41.346Z,13.10
2023-05-19T22:24:07.836Z,12.80
2023-05-19T22:26:35.778Z,13.45
2023-05-19T22:29:02.679Z,13.02
2023-05-19T22:31:30.051Z,13.82
2023-05-19T22:33:56.539Z,14.88
2023-05-19T22:36:23.779Z,14.35
2023-05-19T22:38:50.383Z,14.18
2023-05-19T22:41:16.856Z,14.40
2023-05-19T22:43:43.423Z,14.95
2023-05-19T22:46:10.207Z,14.02
2023-05-19T22:48:36.735Z,13.80
2023-05-19T22:51:06.756Z,14.40
2023-05-19T22:53:33.200Z,14.93
2023-05-19T22:55:59.641Z,14.80
2023-05-19T22:58:26.124Z,15.15
2023-05-19T23:00:52.574Z,14.18
2023-05-19T23:03:21.702Z,15.10
2023-05-19T23:05:48.176Z,15.40
2023-05-19T23:08:14.673Z,15.10
2023-05-19T23:10:43.707Z,14.55
2023-05-19T23:13:11.895Z,14.10
2023-05-19T23:15:38.371Z,13.95
2023-05-19T23:18:07.496Z,15.35
2023-05-19T23:20:34.745Z,14.70
2023-05-19T23:23:01.731Z,14.55
2023-05-19T23:30:21.112Z,15.85
2023-05-19T23:32:47.905Z,18.85
2023-05-19T23:35:16.414Z,17.50
2023-05-19T23:37:43.026Z,17.90
2023-05-19T23:40:09.844Z,18.10
2023-05-19T23:42:39.280Z,17.20
2023-05-19T23:45:06.223Z,17.40
2023-05-19T23:47:33.149Z,17.35
2023-05-19T23:52:26.032Z,17.15
2023-05-19T23:55:13.246Z,17.42
2023-05-19T23:57:39.782Z,18.90
